createdAt,value
2022-12-18T00:00:10.587Z,84.68
2022-12-18T00:02:44.756Z,84.81
2022-12-18T00:05:14.855Z,84.89
2022-12-18T00:07:43.327Z,84.42
2022-12-18T00:10:11.863Z,84.28
2022-12-18T00:12:43.956Z,84.71
2022-12-18T00:15:12.727Z,84.62
2022-12-18T00:17:41.210Z,84.63
2022-12-18T00:20:11.096Z,83.63
2022-12-18T00:22:40.983Z,84.80
2022-12-18T00:25:10.430Z,84.27
2022-12-18T00:27:39.214Z,84.08
2022-12-18T00:30:08.572Z,84.40
2022-12-18T00:32:38.120Z,84.87
2022-12-18T00:35:07.416Z,84.36
2022-12-18T00:37:36.500Z,84.56
2022-12-18T00:40:07.685Z,85.08
2022-12-18T00:42:56.515Z,84.09
2022-12-18T00:45:30.566Z,84.45
2022-12-18T00:47:59.288Z,84.36
2022-12-18T00:50:28.565Z,84.41
2022-12-18T00:52:57.071Z,84.15
2022-12-18T00:55:26.884Z,84.10
2022-12-18T00:57:55.639Z,84.06
2022-12-18T01:00:24.289Z,84.71
2022-12-18T01:02:52.998Z,84.47
2022-12-18T01:05:21.683Z,83.67
2022-12-18T01:07:50.221Z,84.00
2022-12-18T01:10:18.897Z,84.18
2022-12-18T01:12:49.148Z,84.52
2022-12-18T01:15:21.101Z,84.41
2022-12-18T01:17:49.602Z,84.22
2022-12-18T01:20:18.231Z,84.92
2022-12-18T01:22:47.728Z,84.32
2022-12-18T01:25:16.291Z,84.05
2022-12-18T01:27:45.592Z,84.77
2022-12-18T01:30:15.915Z,84.53
2022-12-18T01:32:44.472Z,84.13
2022-12-18T01:35:12.938Z,84.42
2022-12-18T01:37:41.486Z,84.37
2022-12-18T01:40:10.994Z,83.96
2022-12-18T01:42:39.709Z,84.27
2022-12-18T01:45:26.369Z,84.76
2022-12-18T01:47:57.013Z,83.87
2022-12-18T01:50:29.407Z,84.33
2022-12-18T01:53:01.790Z,84.24
2022-12-18T01:55:32.990Z,84.48
2022-12-18T01:58:03.259Z,84.60
2022-12-18T02:00:33.223Z,85.44
2022-12-18T02:03:01.771Z,85.35
2022-12-18T02:05:40.953Z,84.97
2022-12-18T02:08:16.520Z,84.35
2022-12-18T02:10:51.262Z,84.21
2022-12-18T02:13:32.620Z,85.12
2022-12-18T02:16:12.131Z,85.20
2022-12-18T02:18:46.259Z,84.61
2022-12-18T02:21:27.461Z,85.45
2022-12-18T02:24:06.502Z,85.68
2022-12-18T02:26:40.839Z,85.76
2022-12-18T02:29:14.188Z,85.24
2022-12-18T02:31:49.625Z,85.76
2022-12-18T02:34:20.486Z,85.75
2022-12-18T02:36:51.423Z,85.42
2022-12-18T02:39:23.995Z,86.08
2022-12-18T02:42:03.380Z,86.17
2022-12-18T02:44:31.967Z,85.75
2022-12-18T02:47:00.718Z,86.22
2022-12-18T02:49:38.735Z,86.18
2022-12-18T02:52:13.744Z,86.96
2022-12-18T02:54:57.484Z,86.91
2022-12-18T02:57:36.733Z,86.34
2022-12-18T03:00:10.558Z,86.21
2022-12-18T03:02:45.581Z,86.39
2022-12-18T03:05:18.735Z,86.39
2022-12-18T03:07:53.734Z,86.47
2022-12-18T03:10:27.646Z,87.23
2022-12-18T03:13:03.988Z,86.91
2022-12-18T03:15:38.395Z,87.15
2022-12-18T03:18:15.323Z,87.46
2022-12-18T03:20:46.491Z,87.81
2022-12-18T03:23:24.332Z,87.51
2022-12-18T03:25:59.302Z,87.37
2022-12-18T03:28:37.540Z,87.57
2022-12-18T03:31:10.040Z,87.11
2022-12-18T03:33:43.136Z,87.57
2022-12-18T03:36:11.858Z,87.55
2022-12-18T03:38:40.992Z,88.00
2022-12-18T03:41:20.158Z,87.88
2022-12-18T03:44:21.683Z,87.98
2022-12-18T03:46:59.071Z,87.62
2022-12-18T03:49:35.267Z,88.19
2022-12-18T03:52:06.802Z,88.16
2022-12-18T03:54:37.444Z,88.27
2022-12-18T03:57:18.497Z,87.74
2022-12-18T03:59:51.461Z,87.91
2022-12-18T04:02:24.584Z,88.01
2022-12-18T04:04:55.493Z,88.00
2022-12-18T04:07:25.375Z,88.26
2022-12-18T04:09:57.903Z,88.06
2022-12-18T04:12:27.283Z,88.18
2022-12-18T04:14:57.313Z,87.59
2022-12-18T04:17:26.004Z,88.31
2022-12-18T04:19:54.674Z,88.32
2022-12-18T04:22:23.251Z,88.54
2022-12-18T04:24:56.680Z,88.30
2022-12-18T04:27:32.601Z,88.06
2022-12-18T04:30:03.109Z,87.88
2022-12-18T04:32:32.879Z,87.93
2022-12-18T04:35:02.636Z,87.30
2022-12-18T04:37:31.243Z,87.33
2022-12-18T04:39:59.904Z,87.41
2022-12-18T04:42:36.253Z,87.65
2022-12-18T04:45:07.324Z,87.30
2022-12-18T04:47:35.913Z,87.53
2022-12-18T04:50:05.669Z,87.01
2022-12-18T04:52:34.218Z,87.35
2022-12-18T04:55:03.046Z,87.16
2022-12-18T04:57:31.544Z,87.36
2022-12-18T05:00:00.101Z,87.36
2022-12-18T05:02:30.076Z,87.41
2022-12-18T05:04:58.699Z,87.53
2022-12-18T05:07:27.361Z,87.40
2022-12-18T05:09:55.951Z,87.41
2022-12-18T05:12:27.326Z,87.36
2022-12-18T05:14:55.991Z,86.71
2022-12-18T05:17:24.496Z,87.33
2022-12-18T05:19:54.334Z,87.06
2022-12-18T05:22:22.844Z,86.90
2022-12-18T05:24:51.320Z,86.92
2022-12-18T05:27:21.539Z,87.34
2022-12-18T05:29:50.018Z,86.90
2022-12-18T05:32:18.510Z,87.45
2022-12-18T05:34:47.038Z,86.96
2022-12-18T05:37:17.935Z,86.93
2022-12-18T05:39:46.383Z,87.07
2022-12-18T05:42:15.268Z,86.96
2022-12-18T05:44:43.801Z,87.19
2022-12-18T05:47:12.267Z,87.27
2022-12-18T05:49:40.776Z,87.41
2022-12-18T05:52:09.799Z,86.91
2022-12-18T05:54:40.060Z,86.93
2022-12-18T05:57:08.565Z,86.92
2022-12-18T05:59:37.179Z,86.80
2022-12-18T06:02:05.925Z,86.91
2022-12-18T06:04:34.514Z,87.18
2022-12-18T06:07:06.075Z,87.54
2022-12-18T06:09:34.547Z,86.92
2022-12-18T06:12:04.817Z,86.34
2022-12-18T06:14:33.305Z,87.25
2022-12-18T06:17:01.828Z,86.52
2022-12-18T06:19:30.258Z,86.92
2022-12-18T06:21:59.830Z,86.58
2022-12-18T06:24:28.486Z,86.51
2022-12-18T06:26:57.016Z,86.87
2022-12-18T06:29:26.917Z,87.00
2022-12-18T06:31:55.477Z,86.91
2022-12-18T06:34:24.390Z,86.83
2022-12-18T06:36:53.063Z,86.81
2022-12-18T06:39:21.579Z,86.73
2022-12-18T06:41:50.098Z,87.16
2022-12-18T06:44:18.563Z,86.68
2022-12-18T06:46:48.391Z,87.34
2022-12-18T06:49:17.741Z,87.22
2022-12-18T06:51:46.179Z,87.05
2022-12-18T06:54:15.865Z,86.71
2022-12-18T06:56:44.492Z,87.37
2022-12-18T06:59:12.968Z,87.38
2022-12-18T07:01:44.612Z,87.65
2022-12-18T07:04:14.663Z,87.35
2022-12-18T07:06:43.216Z,86.74
2022-12-18T07:09:11.761Z,87.39
2022-12-18T07:11:40.216Z,87.50
2022-12-18T07:14:08.752Z,87.75
2022-12-18T07:16:37.475Z,87.04
2022-12-18T07:19:06.080Z,86.77
2022-12-18T07:21:35.924Z,87.12
2022-12-18T07:24:05.222Z,87.00
2022-12-18T07:26:33.800Z,86.85
2022-12-18T07:29:05.014Z,86.50
2022-12-18T07:31:33.655Z,87.15
2022-12-18T07:34:02.344Z,86.99
2022-12-18T07:36:30.945Z,87.09
2022-12-18T07:39:00.745Z,87.14
2022-12-18T07:41:29.201Z,86.89
2022-12-18T07:43:57.757Z,86.92
2022-12-18T07:46:26.341Z,86.30
2022-12-18T07:48:54.881Z,86.92
2022-12-18T07:51:23.368Z,86.42
2022-12-18T07:53:53.127Z,86.35
2022-12-18T07:56:28.716Z,85.80
2022-12-18T07:59:05.834Z,86.22
2022-12-18T08:01:35.135Z,85.57
2022-12-18T08:04:04.171Z,86.97
2022-12-18T08:06:32.842Z,86.72
2022-12-18T08:09:01.428Z,85.76
2022-12-18T08:11:31.342Z,85.65
2022-12-18T08:14:00.095Z,86.21
2022-12-18T08:16:29.250Z,85.65
2022-12-18T08:18:58.105Z,85.62
2022-12-18T08:21:28.502Z,85.78
2022-12-18T08:24:01.045Z,85.37
2022-12-18T08:26:35.412Z,84.64
2022-12-18T08:29:03.988Z,85.70
2022-12-18T08:31:33.869Z,85.33
2022-12-18T08:34:02.745Z,84.96
2022-12-18T08:36:31.222Z,84.34
2022-12-18T08:41:01.140Z,84.12
2022-12-18T08:43:47.512Z,85.38
2022-12-18T08:46:19.292Z,83.94
2022-12-18T08:48:48.659Z,84.34
2022-12-18T08:51:18.920Z,84.20
2022-12-18T08:53:48.257Z,83.21
2022-12-18T08:56:18.724Z,83.10
2022-12-18T08:58:47.468Z,83.49
2022-12-18T09:01:17.387Z,83.37
2022-12-18T09:03:49.089Z,83.49
2022-12-18T09:06:22.459Z,83.68
2022-12-18T09:08:51.346Z,83.90
2022-12-18T09:11:24.900Z,83.75
2022-12-18T09:13:54.743Z,82.88
2022-12-18T09:16:30.119Z,82.79
2022-12-18T09:19:01.226Z,81.29
2022-12-18T09:21:33.092Z,81.61
2022-12-18T09:24:07.331Z,82.34
2022-12-18T09:26:39.125Z,81.14
2022-12-18T09:29:09.694Z,78.97
2022-12-18T09:31:40.081Z,80.34
2022-12-18T09:34:09.158Z,78.24
2022-12-18T09:36:37.808Z,79.36
2022-12-18T09:39:08.779Z,77.52
2022-12-18T09:41:45.100Z,78.29
2022-12-18T09:44:21.114Z,77.72
2022-12-18T09:46:55.444Z,79.65
2022-12-18T09:49:28.682Z,77.44
2022-12-18T09:52:03.616Z,77.47
2022-12-18T09:54:37.974Z,78.50
2022-12-18T09:57:08.036Z,79.46
2022-12-18T09:59:40.687Z,77.34
2022-12-18T10:02:17.908Z,77.60
2022-12-18T10:04:56.211Z,75.90
2022-12-18T10:07:34.930Z,77.11
2022-12-18T10:10:08.677Z,76.42
2022-12-18T10:12:50.094Z,75.69
2022-12-18T10:15:26.327Z,76.21
2022-12-18T10:18:03.432Z,75.17
2022-12-18T10:20:38.734Z,76.25
2022-12-18T10:23:19.366Z,75.55
2022-12-18T10:25:55.289Z,76.23
2022-12-18T10:28:27.230Z,76.24
2022-12-18T10:30:55.774Z,75.83
2022-12-18T10:33:26.380Z,75.87
2022-12-18T10:35:55.969Z,76.09
2022-12-18T10:38:28.018Z,74.91
2022-12-18T10:40:58.996Z,75.55
2022-12-18T10:43:31.061Z,74.35
2022-12-18T10:46:06.666Z,74.84
2022-12-18T10:48:38.731Z,73.80
2022-12-18T10:51:12.669Z,74.47
2022-12-18T10:53:44.639Z,73.95
2022-12-18T10:56:13.817Z,74.43
2022-12-18T10:58:43.847Z,73.17
2022-12-18T11:01:14.457Z,73.40
2022-12-18T11:03:45.638Z,73.44
2022-12-18T11:06:16.630Z,72.33
2022-12-18T11:08:58.691Z,72.22
2022-12-18T11:11:27.929Z,72.20
2022-12-18T11:14:04.759Z,72.68
2022-12-18T11:16:37.917Z,71.94
2022-12-18T11:19:31.751Z,72.73
2022-12-18T11:22:01.481Z,71.65
2022-12-18T11:24:32.988Z,71.37
2022-12-18T11:27:03.976Z,71.65
2022-12-18T11:29:40.608Z,70.90
2022-12-18T11:32:37.991Z,70.64
2022-12-18T11:35:16.799Z,69.90
2022-12-18T11:37:51.338Z,70.30
2022-12-18T11:40:24.314Z,69.93
2022-12-18T11:43:00.615Z,69.43
2022-12-18T11:45:33.930Z,68.08
2022-12-18T11:48:06.704Z,66.90
2022-12-18T11:50:48.365Z,65.78
2022-12-18T11:53:17.045Z,65.89
2022-12-18T11:55:58.508Z,66.65
2022-12-18T11:58:44.872Z,66.11
2022-12-18T12:01:29.574Z,67.55
2022-12-18T12:04:33.670Z,67.11
2022-12-18T12:07:13.702Z,69.01
2022-12-18T12:09:51.416Z,67.46
2022-12-18T12:12:48.736Z,67.88
2022-12-18T12:15:29.934Z,68.94
2022-12-18T12:18:11.501Z,68.90
2022-12-18T12:20:52.294Z,68.03
2022-12-18T12:23:31.340Z,69.17
2022-12-18T12:26:06.135Z,69.41
2022-12-18T12:28:54.436Z,68.69
2022-12-18T12:31:35.719Z,69.95
2022-12-18T12:34:14.267Z,70.27
2022-12-18T12:36:56.284Z,70.29
2022-12-18T12:39:32.460Z,70.19
2022-12-18T12:42:20.449Z,71.06
2022-12-18T12:44:56.484Z,71.36
2022-12-18T12:47:27.754Z,70.84
2022-12-18T12:50:00.459Z,71.09
2022-12-18T12:52:34.355Z,71.48
2022-12-18T12:55:10.263Z,71.34
2022-12-18T12:57:48.049Z,71.38
2022-12-18T13:00:18.419Z,72.46
2022-12-18T13:02:53.348Z,71.98
2022-12-18T13:05:29.158Z,72.74
2022-12-18T13:08:01.544Z,71.85
2022-12-18T13:10:36.150Z,72.55
2022-12-18T13:13:07.109Z,72.71
2022-12-18T13:15:44.006Z,74.67
2022-12-18T13:18:23.650Z,73.61
2022-12-18T13:21:05.905Z,74.03
2022-12-18T13:23:37.585Z,75.09
2022-12-18T13:26:35.234Z,74.82
2022-12-18T13:29:06.979Z,73.17
2022-12-18T13:32:05.070Z,74.00
2022-12-18T13:34:34.955Z,74.96
2022-12-18T13:37:43.786Z,74.43
2022-12-18T13:40:56.137Z,74.08
2022-12-18T13:43:34.943Z,74.92
2022-12-18T13:46:18.623Z,74.78
2022-12-18T13:48:54.138Z,74.52
2022-12-18T13:51:23.751Z,75.24
2022-12-18T13:53:57.288Z,74.86
2022-12-18T13:56:29.460Z,74.41
2022-12-18T13:59:22.261Z,74.57
2022-12-18T14:01:56.288Z,74.59
2022-12-18T14:04:28.516Z,75.19
2022-12-18T14:07:05.883Z,76.00
2022-12-18T14:09:41.419Z,75.78
2022-12-18T14:12:35.976Z,76.28
2022-12-18T14:15:06.027Z,77.04
2022-12-18T14:17:35.878Z,77.19
2022-12-18T14:20:05.260Z,76.38
2022-12-18T14:22:33.881Z,77.50
2022-12-18T14:25:21.128Z,77.39
2022-12-18T14:27:53.158Z,77.08
2022-12-18T14:30:33.047Z,76.88
2022-12-18T14:33:05.724Z,76.51
2022-12-18T14:35:34.797Z,77.23
2022-12-18T14:38:22.229Z,78.26
2022-12-18T14:40:56.636Z,78.37
2022-12-18T14:43:29.513Z,76.96
2022-12-18T14:45:59.297Z,78.13
2022-12-18T14:48:37.159Z,77.89
2022-12-18T14:51:08.529Z,78.31
2022-12-18T14:53:41.419Z,78.76
2022-12-18T14:56:21.621Z,78.67
2022-12-18T14:58:52.039Z,79.65
2022-12-18T15:01:23.835Z,79.49
2022-12-18T15:03:53.572Z,78.90
2022-12-18T15:06:32.515Z,80.57
2022-12-18T15:09:03.140Z,80.01
2022-12-18T15:11:37.749Z,80.56
2022-12-18T15:14:41.637Z,81.17
2022-12-18T15:17:19.517Z,79.39
2022-12-18T15:19:50.057Z,79.20
2022-12-18T15:22:24.686Z,81.38
2022-12-18T15:24:53.763Z,80.09
2022-12-18T15:27:27.012Z,81.24
2022-12-18T15:30:16.965Z,81.17
2022-12-18T15:32:45.867Z,81.93
2022-12-18T15:35:18.229Z,81.96
2022-12-18T15:37:47.412Z,80.41
2022-12-18T15:40:17.568Z,81.10
2022-12-18T15:43:05.844Z,82.08
2022-12-18T15:45:35.071Z,81.21
2022-12-18T15:48:20.104Z,81.13
2022-12-18T15:50:48.671Z,82.27
2022-12-18T15:53:17.201Z,81.92
2022-12-18T15:56:03.116Z,82.50
2022-12-18T15:58:33.783Z,81.30
2022-12-18T16:01:03.504Z,82.16
2022-12-18T16:03:32.148Z,80.89
2022-12-18T16:06:02.965Z,80.89
2022-12-18T16:08:32.718Z,82.41
2022-12-18T16:11:02.244Z,81.66
2022-12-18T16:13:30.966Z,81.99
2022-12-18T16:16:00.960Z,82.12
2022-12-18T16:18:29.905Z,81.25
2022-12-18T16:20:58.555Z,81.56
2022-12-18T16:23:28.082Z,81.85
2022-12-18T16:25:56.600Z,81.64
2022-12-18T16:28:25.133Z,83.18
2022-12-18T16:30:53.780Z,82.85
2022-12-18T16:33:24.344Z,81.59
2022-12-18T16:35:54.268Z,81.92
2022-12-18T16:38:22.859Z,82.56
2022-12-18T16:41:09.468Z,81.85
2022-12-18T16:43:38.259Z,81.66
2022-12-18T16:46:07.122Z,81.02
2022-12-18T16:48:36.999Z,81.52
2022-12-18T16:51:07.373Z,83.01
2022-12-18T16:53:35.863Z,82.02
2022-12-18T16:56:08.218Z,82.25
2022-12-18T16:58:37.201Z,82.46
2022-12-18T17:01:09.623Z,83.35
2022-12-18T17:03:40.206Z,82.92
2022-12-18T17:06:09.575Z,82.45
2022-12-18T17:08:38.000Z,83.22
2022-12-18T17:11:07.856Z,81.73
2022-12-18T17:13:37.273Z,83.14
2022-12-18T17:16:07.365Z,82.18
2022-12-18T17:18:36.380Z,82.55
2022-12-18T17:21:09.473Z,81.43
2022-12-18T17:23:39.141Z,81.87
2022-12-18T17:26:10.525Z,83.03
2022-12-18T17:28:40.352Z,82.97
2022-12-18T17:31:13.159Z,83.08
2022-12-18T17:33:42.374Z,82.97
2022-12-18T17:36:13.272Z,81.89
2022-12-18T17:38:45.282Z,82.51
2022-12-18T17:41:13.838Z,81.88
2022-12-18T17:43:45.661Z,82.35
2022-12-18T17:46:16.005Z,81.97
2022-12-18T17:48:44.514Z,82.53
2022-12-18T17:51:16.433Z,81.87
2022-12-18T17:53:45.181Z,82.11
2022-12-18T17:56:15.715Z,83.30
2022-12-18T17:58:44.180Z,83.23
2022-12-18T18:01:15.168Z,83.56
2022-12-18T18:03:45.281Z,83.20
2022-12-18T18:06:17.206Z,82.87
2022-12-18T18:08:45.784Z,82.01
2022-12-18T18:11:34.316Z,82.28
2022-12-18T18:14:05.279Z,82.27
2022-12-18T18:16:35.937Z,83.21
2022-12-18T18:19:08.172Z,82.90
2022-12-18T18:21:40.033Z,81.73
2022-12-18T18:24:11.164Z,82.51
2022-12-18T18:26:41.515Z,82.97
2022-12-18T18:29:15.116Z,81.85
2022-12-18T18:31:44.049Z,81.55
2022-12-18T18:34:16.547Z,82.32
2022-12-18T18:36:47.207Z,82.81
2022-12-18T18:39:15.857Z,82.41
2022-12-18T18:41:48.243Z,81.90
2022-12-18T18:44:18.201Z,81.99
2022-12-18T18:46:46.983Z,82.78
2022-12-18T18:49:16.163Z,83.11
2022-12-18T18:51:46.025Z,82.01
2022-12-18T18:54:14.575Z,82.30
2022-12-18T18:57:18.787Z,81.41
2022-12-18T18:59:32.239Z,82.59
2022-12-18T19:02:04.220Z,82.45
2022-12-18T19:04:33.912Z,82.27
2022-12-18T19:07:04.050Z,81.45
2022-12-18T19:09:32.483Z,82.19
2022-12-18T19:12:18.288Z,81.96
2022-12-18T19:14:46.986Z,81.73
2022-12-18T19:17:15.486Z,80.76
2022-12-18T19:19:44.274Z,82.22
2022-12-18T19:22:14.130Z,82.18
2022-12-18T19:24:45.948Z,80.89
2022-12-18T19:27:14.476Z,82.21
2022-12-18T19:29:43.379Z,81.33
2022-12-18T19:32:11.978Z,81.39
2022-12-18T19:34:41.040Z,80.33
2022-12-18T19:37:11.439Z,81.09
2022-12-18T19:39:41.401Z,81.71
2022-12-18T19:42:09.828Z,82.17
2022-12-18T19:44:39.467Z,82.73
2022-12-18T19:47:07.904Z,82.50
2022-12-18T19:49:37.108Z,82.26
2022-12-18T19:52:05.802Z,81.01
2022-12-18T19:54:34.638Z,80.62
2022-12-18T19:57:07.162Z,81.44
2022-12-18T19:59:36.841Z,80.35
2022-12-18T20:02:08.151Z,80.93
2022-12-18T20:04:36.941Z,79.69
2022-12-18T20:07:05.532Z,81.17
2022-12-18T20:09:34.152Z,79.72
2022-12-18T20:12:05.000Z,80.64
2022-12-18T20:14:33.748Z,80.24
2022-12-18T20:17:02.264Z,79.87
2022-12-18T20:19:31.593Z,79.70
2022-12-18T20:22:02.330Z,79.56
2022-12-18T20:24:30.934Z,80.54
2022-12-18T20:26:59.542Z,80.82
2022-12-18T20:29:29.501Z,80.69
2022-12-18T20:31:58.167Z,80.66
2022-12-18T20:34:27.068Z,79.78
2022-12-18T20:36:55.765Z,79.88
2022-12-18T20:39:26.373Z,79.73
2022-12-18T20:41:56.511Z,80.02
2022-12-18T20:44:25.022Z,79.81
2022-12-18T20:46:57.702Z,78.96
2022-12-18T20:49:27.966Z,80.18
2022-12-18T20:51:58.585Z,79.60
2022-12-18T20:54:28.464Z,79.04
2022-12-18T20:56:57.606Z,79.04
2022-12-18T20:59:26.340Z,79.86
2022-12-18T21:01:56.822Z,78.83
2022-12-18T21:04:25.736Z,79.15
2022-12-18T21:07:00.518Z,78.67
2022-12-18T21:09:38.272Z,79.02
2022-12-18T21:12:30.168Z,79.02
2022-12-18T21:15:03.104Z,79.34
2022-12-18T21:17:34.703Z,78.96
2022-12-18T21:20:17.424Z,78.81
2022-12-18T21:22:49.368Z,78.17
2022-12-18T21:25:18.227Z,79.39
2022-12-18T21:27:49.783Z,77.71
2022-12-18T21:30:18.523Z,78.60
2022-12-18T21:32:48.608Z,78.71
2022-12-18T21:35:17.708Z,78.17
2022-12-18T21:37:48.400Z,78.18
2022-12-18T21:40:16.968Z,77.64
2022-12-18T21:43:03.019Z,78.36
2022-12-18T21:45:31.432Z,78.78
2022-12-18T21:48:01.376Z,78.03
2022-12-18T21:50:29.919Z,78.26
2022-12-18T21:52:58.598Z,78.06
2022-12-18T21:55:27.075Z,78.56
2022-12-18T21:57:55.554Z,78.24
2022-12-18T22:00:24.324Z,78.03
2022-12-18T22:03:17.338Z,79.65
2022-12-18T22:05:43.484Z,77.44
2022-12-18T22:08:12.407Z,78.74
2022-12-18T22:10:41.055Z,78.64
2022-12-18T22:13:09.941Z,78.28
2022-12-18T22:15:38.502Z,79.18
2022-12-18T22:18:07.000Z,78.98
2022-12-18T22:20:35.505Z,77.18
2022-12-18T22:23:06.448Z,78.91
2022-12-18T22:25:39.790Z,78.28
2022-12-18T22:28:26.008Z,77.67
2022-12-18T22:30:59.008Z,77.87
2022-12-18T22:33:28.953Z,79.10
2022-12-18T22:35:57.613Z,77.54
2022-12-18T22:38:27.419Z,78.13
2022-12-18T22:40:56.279Z,77.57
2022-12-18T22:43:24.987Z,77.05
2022-12-18T22:45:53.546Z,78.47
2022-12-18T22:48:22.138Z,77.50
2022-12-18T22:50:50.990Z,79.09
2022-12-18T22:53:22.639Z,77.33
2022-12-18T22:58:20.952Z,78.22
2022-12-18T23:00:49.414Z,79.28
2022-12-18T23:03:18.029Z,77.21
2022-12-18T23:05:47.755Z,77.21
2022-12-18T23:08:16.191Z,78.72
2022-12-18T23:10:44.718Z,78.09
2022-12-18T23:13:14.500Z,78.78
2022-12-18T23:15:43.071Z,78.37
2022-12-18T23:18:11.560Z,77.85
2022-12-18T23:20:40.026Z,77.97
2022-12-18T23:23:08.736Z,77.88
2022-12-18T23:25:37.240Z,77.49
2022-12-18T23:28:06.086Z,78.79
2022-12-18T23:30:36.114Z,78.63
2022-12-18T23:33:04.794Z,78.88
2022-12-18T23:35:33.523Z,78.68
2022-12-18T23:38:01.953Z,76.38
2022-12-18T23:40:30.819Z,77.08
2022-12-18T23:43:00.434Z,77.78
2022-12-18T23:45:29.244Z,78.43
2022-12-18T23:47:59.245Z,77.74
2022-12-18T23:50:29.550Z,77.37
2022-12-18T23:53:05.014Z,78.64
2022-12-18T23:55:39.595Z,77.37
2022-12-18T23:58:09.563Z,78.22
